Speegleville, Texas
Current Conditions -  °F | °C
As of 8:51 AM on Wednesday 22 Oct 2014 (Local Time) from KACT Reporting Station
Haze Haze  
Wind Chill: 64°   Ceiling: Unl
Heat Index: 64°   Visibility: 5mi
Dew Point: 60°   Wind: 3mph
Humidity: 87%   Direction: 60°ENE
Pressure: 30.13"   Gusts: NA
Location:  31.5356°N, 97.1921°W
Report Text: KACT 221351Z 06003KT 5SM BR CLR 18/16 A3013 RMK AO2 SLP199 T01780156
Loading
Personal Weather Stations






























Interactive Weather Map
Tropical Storm Tracking
New forecast layout! Learn more

10-Day Weather Forecast

Advertisements
Track Severe Weather on mobile